TimeEST,TemperatureF,Dew PointF,Humidity,Sea Level PressureIn,VisibilityMPH,Wind Direction,Wind SpeedMPH,Gust SpeedMPH,PrecipitationIn,Events,Conditions,WindDirDegrees,DateUTC
12:54 AM,35.1,32.0,89,29.95,6.0,Calm,Calm,-,N/A,,Mostly Cloudy,0,2013-02-16 05:54:00
1:54 AM,36.0,32.0,86,29.95,7.0,NW,4.6,-,N/A,,Scattered Clouds,310,2013-02-16 06:54:00
2:54 AM,35.1,32.0,89,29.92,6.0,Calm,Calm,-,N/A,,Overcast,0,2013-02-16 07:54:00
3:54 AM,37.9,33.1,83,29.92,9.0,NNW,4.6,-,N/A,,Overcast,340,2013-02-16 08:54:00
4:54 AM,36.0,26.1,67,29.93,10.0,NNW,11.5,-,N/A,,Overcast,330,2013-02-16 09:54:00
5:54 AM,35.1,28.0,76,29.94,10.0,NW,16.1,-,N/A,,Overcast,320,2013-02-16 10:54:00
6:54 AM,34.0,28.0,79,29.94,10.0,NNW,12.7,18.4,N/A,,Overcast,330,2013-02-16 11:54:00
7:54 AM,34.0,28.0,79,29.94,10.0,NNW,11.5,-,N/A,,Overcast,340,2013-02-16 12:54:00
8:23 AM,33.8,28.4,81,29.95,2.0,NNW,9.2,-,0.00,Snow,Light Snow,330,2013-02-16 13:23:00
8:27 AM,33.8,28.4,81,29.95,1.8,NNW,10.4,-,0.00,Snow,Light Snow,330,2013-02-16 13:27:00
8:54 AM,33.1,28.9,85,29.95,1.2,NNW,10.4,-,0.00,Snow,Light Snow,330,2013-02-16 13:54:00
9:24 AM,33.8,28.4,81,29.94,1.0,NNW,9.2,-,0.00,Snow,Light Snow,340,2013-02-16 14:24:00
9:54 AM,33.1,30.0,89,29.93,1.0,North,6.9,-,0.01,Snow,Light Snow,360,2013-02-16 14:54:00
10:37 AM,33.8,30.2,87,29.93,1.5,NNW,9.2,-,0.00,,Overcast,340,2013-02-16 15:37:00
10:54 AM,34.0,30.0,85,29.93,10.0,North,8.1,-,0.00,,Overcast,360,2013-02-16 15:54:00
11:49 AM,33.8,28.4,81,29.92,2.5,NNW,6.9,-,0.00,Snow,Light Snow,340,2013-02-16 16:49:00
11:54 AM,34.0,30.0,85,29.91,2.0,NNW,9.2,-,0.00,Snow,Light Snow,340,2013-02-16 16:54:00
12:06 PM,33.8,30.2,87,29.90,1.5,NNW,6.9,-,0.00,Snow,Light Snow,340,2013-02-16 17:06:00
12:24 PM,33.8,30.2,87,29.90,2.0,NNW,6.9,-,0.00,Snow,Light Snow,340,2013-02-16 17:24:00
12:54 PM,35.1,30.9,85,29.89,3.0,North,5.8,-,0.00,Snow,Light Snow,360,2013-02-16 17:54:00
1:54 PM,36.0,28.9,76,29.87,7.0,NNE,4.6,-,0.00,,Overcast,30,2013-02-16 18:54:00
2:54 PM,37.0,27.0,67,29.86,7.0,North,9.2,-,0.00,,Overcast,360,2013-02-16 19:54:00
3:54 PM,37.9,26.1,62,29.84,10.0,North,8.1,-,N/A,,Overcast,350,2013-02-16 20:54:00
4:54 PM,35.1,28.9,78,29.83,10.0,East,6.9,-,N/A,,Overcast,90,2013-02-16 21:54:00
5:54 PM,36.0,30.0,79,29.82,10.0,ENE,3.5,-,N/A,,Overcast,60,2013-02-16 22:54:00
6:54 PM,36.0,27.0,70,29.83,3.0,NNW,9.2,-,0.00,Snow,Light Snow,330,2013-02-16 23:54:00
7:54 PM,35.1,26.1,70,29.81,8.0,NNE,11.5,-,0.00,Snow,Light Snow,20,2013-02-17 00:54:00
8:54 PM,35.1,21.0,57,29.80,10.0,North,11.5,-,0.00,,Overcast,360,2013-02-17 01:54:00
9:54 PM,34.0,18.0,52,29.78,10.0,NNW,12.7,18.4,N/A,,Overcast,340,2013-02-17 02:54:00
10:28 PM,33.8,17.6,52,29.77,10.0,North,11.5,-,N/A,,Overcast,350,2013-02-17 03:28:00
10:54 PM,33.1,18.0,54,29.75,10.0,NNW,11.5,-,0.00,Snow,Light Snow,340,2013-02-17 03:54:00
11:09 PM,33.8,17.6,52,29.73,9.0,North,11.5,-,0.00,,Overcast,350,2013-02-17 04:09:00
11:54 PM,32.0,18.0,56,29.71,10.0,North,12.7,-,0.00,,Overcast,350,2013-02-17 04:54:00